Time;durP1;ratioP1;P1;durP2;ratioP2;P2;SDS_P1;SDS_P2;PMS_P1;PMS_P2;Temp;Humidity;BMP_temperature;BMP_pressure;BME280_temperature;BME280_humidity;BME280_pressure;Samples;Min_cycle;Max_cycle;Signal;HPM_P1;HPM_P2
2022/05/06 00:01:31;;;;;;;3.10;1.30;;;11.70;99.90;;;;;;5075841;28;20464;-84
2022/05/06 00:03:58;;;;;;;4.93;1.33;;;11.60;99.90;;;;;;5075816;28;20449;-84
2022/05/06 00:06:25;;;;;;;1.70;1.60;;;11.70;99.90;;;;;;5075414;28;20810;-84
2022/05/06 00:08:53;;;;;;;1.93;1.40;;;11.70;99.90;;;;;;5075697;28;20475;-84
2022/05/06 00:11:20;;;;;;;3.80;1.33;;;11.70;99.90;;;;;;5075402;28;20452;-84
2022/05/06 00:13:47;;;;;;;2.93;1.47;;;11.70;99.90;;;;;;5075613;28;20445;-84
2022/05/06 00:16:13;;;;;;;0.87;0.57;;;11.70;99.90;;;;;;5075590;28;20449;-84
2022/05/06 00:18:40;;;;;;;2.83;0.73;;;11.70;99.90;;;;;;5075509;28;20476;-84
2022/05/06 00:21:07;;;;;;;4.03;1.90;;;11.70;99.90;;;;;;5075506;28;20448;-84
2022/05/06 00:23:33;;;;;;;2.30;1.43;;;11.70;99.90;;;;;;5075462;28;20449;-84
2022/05/06 00:26:03;;;;;;;5.20;1.20;;;11.70;99.90;;;;;;5075025;28;20847;-83
2022/05/06 00:28:30;;;;;;;3.27;1.30;;;11.70;99.90;;;;;;5075273;28;20452;-84
2022/05/06 00:30:57;;;;;;;2.33;1.33;;;11.70;99.90;;;;;;5074961;28;20449;-84
2022/05/06 00:33:24;;;;;;;3.30;1.23;;;11.70;99.90;;;;;;5074726;28;20479;-84
2022/05/06 00:35:53;;;;;;;1.37;0.67;;;11.70;99.90;;;;;;5074879;28;20936;-84
2022/05/06 00:38:20;;;;;;;2.37;1.10;;;11.70;99.90;;;;;;5075168;28;20460;-84
2022/05/06 00:40:46;;;;;;;1.40;1.30;;;11.60;99.90;;;;;;5075096;28;20465;-84
2022/05/06 00:43:14;;;;;;;3.60;2.00;;;11.60;99.90;;;;;;5075041;28;20441;-84
2022/05/06 00:45:54;;;;;;;1.57;1.47;;;11.60;99.90;;;;;;5074945;28;20468;-84
2022/05/06 00:48:22;;;;;;;3.73;1.90;;;11.60;99.90;;;;;;5074970;28;20437;-84
2022/05/06 00:50:50;;;;;;;1.13;1.03;;;11.60;99.90;;;;;;5074834;28;20503;-84
2022/05/06 00:53:18;;;;;;;2.47;1.80;;;11.60;99.90;;;;;;5074845;28;20444;-84
2022/05/06 00:55:45;;;;;;;2.93;1.37;;;11.60;99.90;;;;;;5074839;28;20447;-84
2022/05/06 00:58:14;;;;;;;2.40;1.23;;;11.60;99.90;;;;;;5074785;28;20440;-85
2022/05/06 01:00:41;;;;;;;6.70;1.60;;;11.60;99.90;;;;;;5074622;28;20472;-84
2022/05/06 01:03:08;;;;;;;1.63;1.43;;;11.60;99.90;;;;;;5074712;28;20458;-84
2022/05/06 01:05:35;;;;;;;1.73;1.63;;;11.60;99.90;;;;;;5074594;28;20449;-84
2022/05/06 01:08:03;;;;;;;2.93;1.00;;;11.60;99.90;;;;;;5074458;28;20525;-84
2022/05/06 01:10:30;;;;;;;1.33;0.90;;;11.60;99.90;;;;;;5074540;28;20468;-83
2022/05/06 01:12:57;;;;;;;3.77;2.90;;;11.60;99.90;;;;;;5074446;28;20448;-84
2022/05/06 01:15:28;;;;;;;3.87;2.47;;;11.60;99.90;;;;;;5074429;28;20555;-84
2022/05/06 01:17:56;;;;;;;0.90;0.73;;;11.60;99.90;;;;;;5081627;28;20896;-84
2022/05/06 01:20:24;;;;;;;1.30;1.17;;;11.60;99.90;;;;;;5074288;28;20468;-84
2022/05/06 01:22:53;;;;;;;1.80;1.70;;;11.60;99.90;;;;;;5074313;28;20856;-84
2022/05/06 01:25:21;;;;;;;1.37;0.90;;;11.60;99.90;;;;;;5074182;28;20448;-84
2022/05/06 01:27:50;;;;;;;3.73;1.90;;;11.60;99.90;;;;;;5074125;28;20572;-84
2022/05/06 01:30:28;;;;;;;3.60;1.53;;;11.60;99.90;;;;;;5073782;28;20453;-84
2022/05/06 01:32:56;;;;;;;0.90;0.60;;;11.60;99.90;;;;;;5073699;28;20995;-84
2022/05/06 01:35:25;;;;;;;1.57;1.43;;;11.60;99.90;;;;;;5074011;28;20464;-84
2022/05/06 01:37:55;;;;;;;1.83;1.67;;;11.70;99.90;;;;;;5073974;28;20532;-84
2022/05/06 01:40:25;;;;;;;2.33;1.57;;;11.60;99.90;;;;;;5073876;28;20492;-84
2022/05/06 01:42:56;;;;;;;1.37;1.30;;;11.60;99.90;;;;;;5074187;28;20452;-84
2022/05/06 01:45:26;;;;;;;1.47;1.37;;;11.60;99.90;;;;;;5073523;28;20896;-84
2022/05/06 01:47:53;;;;;;;3.00;1.53;;;11.60;99.90;;;;;;5073682;28;20481;-84
2022/05/06 01:50:21;;;;;;;1.07;1.03;;;11.60;99.90;;;;;;5073496;28;20448;-84
2022/05/06 01:52:50;;;;;;;2.70;0.80;;;11.60;99.90;;;;;;5073668;28;20449;-84
2022/05/06 01:55:19;;;;;;;3.87;1.73;;;11.60;99.90;;;;;;5073671;28;20480;-84
2022/05/06 01:57:46;;;;;;;9.10;1.73;;;11.60;99.90;;;;;;5073588;28;20445;-84
2022/05/06 02:00:13;;;;;;;1.90;1.07;;;11.60;99.90;;;;;;5073613;28;20497;-84
2022/05/06 02:02:40;;;;;;;2.27;1.20;;;11.60;99.90;;;;;;5073178;28;20449;-84
2022/05/06 02:05:19;;;;;;;2.30;1.10;;;11.60;99.90;;;;;;5073326;28;20468;-84
2022/05/06 02:07:48;;;;;;;5.13;1.77;;;11.60;99.90;;;;;;5073452;28;20865;-84
2022/05/06 02:10:15;;;;;;;2.30;0.80;;;11.60;99.90;;;;;;5073428;28;20493;-84
2022/05/06 02:12:44;;;;;;;1.63;1.53;;;11.60;99.90;;;;;;5073286;28;20779;-84
2022/05/06 02:15:12;;;;;;;2.03;1.37;;;11.60;99.90;;;;;;5073355;28;20456;-85
2022/05/06 02:17:39;;;;;;;4.13;1.23;;;11.60;99.90;;;;;;5073430;28;20440;-84
2022/05/06 02:20:08;;;;;;;2.00;1.37;;;11.60;99.90;;;;;;5073313;28;20468;-84
2022/05/06 02:22:35;;;;;;;2.13;2.03;;;11.60;99.90;;;;;;5073275;28;20453;-83
2022/05/06 02:25:02;;;;;;;2.00;1.90;;;11.60;99.90;;;;;;5073323;28;20456;-84
2022/05/06 02:27:30;;;;;;;9.67;3.73;;;11.60;99.90;;;;;;5073430;28;20480;-84
2022/05/06 02:35:29;;;;;;;0.93;0.80;;;11.60;99.90;;;;;;5073132;28;20401;-84
2022/05/06 02:37:56;;;;;;;1.70;1.23;;;11.70;99.90;;;;;;5072863;28;20987;-84
2022/05/06 02:40:22;;;;;;;1.80;1.70;;;11.70;99.90;;;;;;5072780;28;20549;-84
2022/05/06 02:42:49;;;;;;;2.70;1.57;;;11.70;99.90;;;;;;5073156;28;20811;-84
2022/05/06 02:45:17;;;;;;;3.17;1.40;;;11.70;99.90;;;;;;5073144;28;20440;-84
2022/05/06 02:47:45;;;;;;;2.87;1.07;;;11.70;99.90;;;;;;5072670;28;21007;-84
2022/05/06 02:50:12;;;;;;;1.27;1.20;;;11.70;99.90;;;;;;5072745;28;20468;-84
2022/05/06 02:52:38;;;;;;;1.83;1.30;;;11.60;99.90;;;;;;5073038;28;20449;-84
2022/05/06 02:55:06;;;;;;;5.63;1.50;;;11.60;99.90;;;;;;5072748;28;20452;-84
2022/05/06 02:57:33;;;;;;;1.40;1.17;;;11.60;99.90;;;;;;5073011;28;20452;-84
2022/05/06 02:59:59;;;;;;;4.27;1.80;;;11.60;99.90;;;;;;5072913;28;20468;-84
2022/05/06 03:02:27;;;;;;;2.73;2.53;;;11.60;99.90;;;;;;5072998;28;20448;-84
2022/05/06 03:04:54;;;;;;;5.17;1.50;;;11.60;99.90;;;;;;5072611;28;20971;-84
2022/05/06 03:07:21;;;;;;;2.97;2.03;;;11.60;99.90;;;;;;5072831;28;20492;-84
2022/05/06 03:09:47;;;;;;;1.97;1.87;;;11.60;99.90;;;;;;5072821;28;20521;-84
2022/05/06 03:12:16;;;;;;;2.73;1.43;;;11.60;99.90;;;;;;5072583;28;20460;-84
2022/05/06 03:14:43;;;;;;;4.03;1.43;;;11.60;99.90;;;;;;5073292;28;20562;-84
2022/05/06 03:17:10;;;;;;;2.93;2.20;;;11.60;99.90;;;;;;5076723;28;20476;-84
2022/05/06 03:19:39;;;;;;;1.30;1.20;;;11.60;99.90;;;;;;5076602;28;20464;-84
2022/05/06 03:22:08;;;;;;;0.90;0.90;;;11.60;99.90;;;;;;5076358;28;20460;-84
2022/05/06 03:24:34;;;;;;;1.63;1.30;;;11.60;99.90;;;;;;5076519;28;20456;-84
2022/05/06 03:27:01;;;;;;;0.83;0.83;;;11.60;99.90;;;;;;5076403;28;20485;-83
2022/05/06 03:29:28;;;;;;;1.00;0.90;;;11.50;99.90;;;;;;5076384;28;20862;-84
2022/05/06 03:31:56;;;;;;;1.57;0.70;;;11.50;99.90;;;;;;5076134;28;20582;-84
2022/05/06 03:34:23;;;;;;;2.93;0.93;;;11.50;99.90;;;;;;5076432;28;20433;-83
2022/05/06 03:36:51;;;;;;;5.10;2.00;;;11.50;99.90;;;;;;5075921;28;20815;-84
2022/05/06 03:39:17;;;;;;;4.20;1.30;;;11.50;99.90;;;;;;5076226;28;20464;-83
2022/05/06 03:41:44;;;;;;;1.83;1.10;;;11.50;99.90;;;;;;5076276;28;20452;-84
2022/05/06 03:44:11;;;;;;;2.13;1.93;;;11.50;99.90;;;;;;5076115;28;20460;-84
2022/05/06 03:46:37;;;;;;;2.60;1.10;;;11.50;99.90;;;;;;5076133;28;20787;-84
2022/05/06 03:49:04;;;;;;;1.40;0.83;;;11.50;99.90;;;;;;5075977;28;20468;-84
2022/05/06 03:51:31;;;;;;;3.93;1.60;;;11.50;99.90;;;;;;5076143;28;20449;-84
2022/05/06 03:53:59;;;;;;;2.10;1.87;;;11.50;99.90;;;;;;5075680;28;21008;-84
2022/05/06 03:56:27;;;;;;;3.03;0.70;;;11.50;99.90;;;;;;5075716;28;20936;-84
2022/05/06 03:58:54;;;;;;;1.43;1.30;;;11.50;99.90;;;;;;5075555;28;20469;-84
2022/05/06 04:01:21;;;;;;;3.13;0.80;;;11.50;99.90;;;;;;5075564;28;20912;-84
2022/05/06 04:03:48;;;;;;;1.90;1.20;;;11.50;99.90;;;;;;5075898;28;20448;-84
2022/05/06 04:06:14;;;;;;;1.83;1.73;;;11.50;99.90;;;;;;5081217;28;20445;-84
2022/05/06 04:08:42;;;;;;;2.60;2.33;;;11.50;99.90;;;;;;5075636;28;20476;-84
2022/05/06 04:11:10;;;;;;;1.33;0.70;;;11.50;99.90;;;;;;5075729;28;20481;-84
2022/05/06 04:13:37;;;;;;;3.70;1.40;;;11.50;99.90;;;;;;5075817;28;20460;-84
2022/05/06 04:16:05;;;;;;;1.60;1.17;;;11.50;99.90;;;;;;5075687;28;20608;-84
2022/05/06 04:18:32;;;;;;;1.60;1.10;;;11.60;99.90;;;;;;5075492;28;20472;-84
2022/05/06 04:23:43;;;;;;;2.00;0.70;;;11.60;99.90;;;;;;5075902;28;20443;-84
2022/05/06 04:26:12;;;;;;;3.60;1.00;;;11.60;99.90;;;;;;5074757;28;20931;-84
2022/05/06 04:28:40;;;;;;;2.00;1.90;;;11.60;99.90;;;;;;5075248;28;20579;-84
2022/05/06 04:31:07;;;;;;;1.50;1.40;;;11.50;99.90;;;;;;5075015;28;20936;-84
2022/05/06 04:33:35;;;;;;;1.23;0.80;;;11.60;99.90;;;;;;5074857;28;20995;-84
2022/05/06 04:36:04;;;;;;;3.43;1.40;;;11.60;99.90;;;;;;5074890;28;20484;-84
2022/05/06 04:38:31;;;;;;;2.60;1.70;;;11.60;99.90;;;;;;5075078;28;20445;-84
2022/05/06 04:40:59;;;;;;;3.97;1.97;;;11.60;99.90;;;;;;5074809;28;20932;-84
2022/05/06 04:43:28;;;;;;;5.20;2.23;;;11.60;99.90;;;;;;5075109;28;20480;-84
2022/05/06 04:45:56;;;;;;;2.70;0.73;;;11.60;99.90;;;;;;5075437;28;20850;-84
2022/05/06 04:48:23;;;;;;;2.30;1.10;;;11.50;99.90;;;;;;5074623;28;20991;-84
2022/05/06 04:50:49;;;;;;;3.90;1.57;;;11.50;99.90;;;;;;5074622;28;21006;-84
2022/05/06 04:53:17;;;;;;;1.87;0.90;;;11.60;99.90;;;;;;5074861;28;20449;-84
2022/05/06 04:55:46;;;;;;;2.93;1.33;;;11.60;99.90;;;;;;5074901;28;20444;-84
2022/05/06 04:58:14;;;;;;;0.97;0.87;;;11.60;99.90;;;;;;5074799;28;20537;-84
2022/05/06 05:00:42;;;;;;;0.83;0.83;;;11.60;99.90;;;;;;5074332;28;20997;-84
2022/05/06 05:03:09;;;;;;;1.80;0.70;;;11.60;99.90;;;;;;5074776;28;20445;-84
2022/05/06 05:05:36;;;;;;;2.40;2.20;;;11.60;99.90;;;;;;5074512;28;20866;-84
2022/05/06 05:08:03;;;;;;;2.50;1.13;;;11.60;99.90;;;;;;5074541;28;20484;-84
2022/05/06 05:10:30;;;;;;;3.60;1.70;;;11.60;99.90;;;;;;5074486;28;20473;-85
2022/05/06 05:12:56;;;;;;;9.77;1.37;;;11.60;99.90;;;;;;5074156;28;20962;-84
2022/05/06 05:15:23;;;;;;;2.60;1.27;;;11.60;99.90;;;;;;5074460;28;20456;-84
2022/05/06 05:17:51;;;;;;;0.90;0.90;;;11.60;99.90;;;;;;5074265;28;20440;-84
2022/05/06 05:20:18;;;;;;;1.07;0.70;;;11.60;99.90;;;;;;5074451;28;20888;-84
2022/05/06 05:22:45;;;;;;;1.43;0.83;;;11.60;99.90;;;;;;5074270;28;20444;-84
2022/05/06 05:25:12;;;;;;;3.70;1.20;;;11.60;99.90;;;;;;5074284;28;20452;-84
2022/05/06 05:27:39;;;;;;;2.37;0.73;;;11.60;99.90;;;;;;5074080;28;20480;-84
2022/05/06 05:30:08;;;;;;;2.57;1.23;;;11.60;99.90;;;;;;5073700;28;21022;-84
2022/05/06 05:32:35;;;;;;;1.67;1.33;;;11.50;99.90;;;;;;5073889;28;20488;-84
2022/05/06 05:35:04;;;;;;;1.07;1.00;;;11.60;99.90;;;;;;5073744;28;20436;-84
2022/05/06 05:37:31;;;;;;;1.53;0.97;;;11.50;99.90;;;;;;5073289;28;20967;-82
2022/05/06 05:39:57;;;;;;;1.83;0.80;;;11.50;99.90;;;;;;5074489;28;20475;-82
2022/05/06 05:42:27;;;;;;;1.23;0.90;;;11.50;99.90;;;;;;5074934;28;20452;-83
2022/05/06 05:50:24;;;;;;;1.27;1.00;;;11.60;99.90;;;;;;5074435;28;20490;-83
2022/05/06 05:52:50;;;;;;;2.10;1.27;;;11.60;99.90;;;;;;5074637;28;20453;-83
2022/05/06 05:55:18;;;;;;;1.10;0.90;;;11.60;99.90;;;;;;5074642;28;20871;-83
2022/05/06 05:57:46;;;;;;;1.70;1.17;;;11.60;99.90;;;;;;5074610;28;20451;-83
2022/05/06 06:00:13;;;;;;;1.00;0.50;;;11.60;99.90;;;;;;5074472;28;20469;-83
2022/05/06 06:02:41;;;;;;;0.90;0.80;;;11.60;99.90;;;;;;5074221;28;20459;-83
2022/05/06 06:05:08;;;;;;;2.10;1.40;;;11.60;99.90;;;;;;5073660;28;20506;-83
2022/05/06 06:07:36;;;;;;;2.57;0.97;;;11.60;99.90;;;;;;5073473;28;21030;-83
2022/05/06 06:10:03;;;;;;;3.20;1.53;;;11.60;99.90;;;;;;5073457;28;20991;-83
2022/05/06 06:12:30;;;;;;;1.80;0.70;;;11.60;99.90;;;;;;5073707;28;20460;-83
2022/05/06 06:14:57;;;;;;;2.70;0.97;;;11.60;99.90;;;;;;5073774;28;20444;-83
2022/05/06 06:17:23;;;;;;;2.43;1.70;;;11.50;99.90;;;;;;5073793;28;20454;-84
2022/05/06 06:19:50;;;;;;;2.30;1.20;;;11.50;99.90;;;;;;5073435;28;20839;-84
2022/05/06 06:22:17;;;;;;;1.27;0.80;;;11.50;99.90;;;;;;5073679;28;20449;-84
2022/05/06 06:24:45;;;;;;;1.30;1.30;;;11.50;99.90;;;;;;5073453;28;20494;-84
2022/05/06 06:27:11;;;;;;;3.90;1.03;;;11.40;99.90;;;;;;5073520;28;20453;-83
2022/05/06 06:29:38;;;;;;;2.30;1.00;;;11.40;99.90;;;;;;5073206;28;20999;-83
2022/05/06 06:32:05;;;;;;;3.03;2.77;;;11.30;99.90;;;;;;5073354;28;20476;-84
2022/05/06 06:34:32;;;;;;;2.00;0.83;;;11.30;99.90;;;;;;5073144;28;20433;-83
2022/05/06 06:36:59;;;;;;;1.43;0.90;;;11.40;99.90;;;;;;5073720;28;20482;-83
2022/05/06 06:39:26;;;;;;;5.33;0.90;;;11.30;99.90;;;;;;5072999;28;20465;-84
2022/05/06 06:41:54;;;;;;;1.60;0.90;;;11.30;99.90;;;;;;5073391;28;20432;-83
2022/05/06 06:44:21;;;;;;;1.33;0.87;;;11.40;99.90;;;;;;5074225;28;20433;-83
2022/05/06 06:46:48;;;;;;;4.23;2.27;;;11.40;99.90;;;;;;5073318;28;20440;-83
2022/05/06 06:49:14;;;;;;;1.13;1.03;;;11.40;99.90;;;;;;5074896;28;20536;-83
2022/05/06 06:51:41;;;;;;;2.40;1.37;;;11.40;99.90;;;;;;5084229;28;20813;-83
2022/05/06 06:54:08;;;;;;;1.00;0.53;;;11.40;99.90;;;;;;5077502;28;20500;-83
2022/05/06 06:56:35;;;;;;;1.63;0.80;;;11.60;99.90;;;;;;5077290;28;20776;-83
2022/05/06 06:59:03;;;;;;;3.33;0.83;;;11.60;99.90;;;;;;5077293;28;20831;-83
2022/05/06 07:01:32;;;;;;;2.10;1.13;;;11.60;99.90;;;;;;5077152;28;20455;-83
2022/05/06 07:04:00;;;;;;;1.20;0.83;;;11.70;99.90;;;;;;5076793;28;20483;-83
2022/05/06 07:11:56;;;;;;;3.90;1.67;;;11.60;99.90;;;;;;5077052;28;20518;-83
2022/05/06 07:14:26;;;;;;;1.23;1.13;;;11.60;99.90;;;;;;5077223;28;20846;-83
2022/05/06 07:16:54;;;;;;;2.47;0.77;;;11.70;99.90;;;;;;5076886;28;20456;-83
2022/05/06 07:19:21;;;;;;;1.23;0.60;;;11.70;99.90;;;;;;5076725;28;20467;-83
2022/05/06 07:21:50;;;;;;;3.23;0.87;;;11.70;99.90;;;;;;5076814;28;20448;-83
2022/05/06 07:24:17;;;;;;;1.20;0.90;;;11.70;99.90;;;;;;5076669;28;20476;-83
2022/05/06 07:26:44;;;;;;;1.70;0.70;;;11.70;99.90;;;;;;5076664;28;20455;-83
2022/05/06 07:29:10;;;;;;;0.60;0.50;;;11.70;99.90;;;;;;5076384;28;20530;-83
2022/05/06 07:31:39;;;;;;;1.33;0.90;;;11.70;99.90;;;;;;5076427;28;20547;-84
2022/05/06 07:34:05;;;;;;;2.87;1.00;;;11.80;99.90;;;;;;5076567;28;20528;-83
2022/05/06 07:36:32;;;;;;;0.70;0.70;;;11.80;99.90;;;;;;5076431;28;20911;-83
2022/05/06 07:38:59;;;;;;;1.93;1.30;;;11.80;99.90;;;;;;5076033;28;20469;-83
2022/05/06 07:41:26;;;;;;;6.13;1.33;;;11.80;99.90;;;;;;5076327;28;20566;-83
2022/05/06 07:43:53;;;;;;;4.53;1.33;;;11.90;99.90;;;;;;5076278;28;20449;-83
2022/05/06 07:46:20;;;;;;;2.53;1.03;;;11.90;99.90;;;;;;5076232;28;20480;-83
2022/05/06 07:48:48;;;;;;;1.33;1.23;;;11.90;99.90;;;;;;5076949;28;20495;-83
2022/05/06 07:51:15;;;;;;;2.70;0.93;;;12.00;99.90;;;;;;5076140;28;20444;-83
2022/05/06 07:53:42;;;;;;;0.60;0.50;;;12.00;99.90;;;;;;5075907;28;20441;-83
2022/05/06 07:56:08;;;;;;;3.17;1.10;;;12.10;99.90;;;;;;5075894;28;20452;-83
2022/05/06 07:58:38;;;;;;;0.40;0.40;;;12.10;99.90;;;;;;5075670;28;20865;-83
2022/05/06 08:01:05;;;;;;;0.60;0.60;;;12.10;99.90;;;;;;5075271;28;20444;-83
2022/05/06 08:06:17;;;;;;;1.23;0.70;;;12.10;99.90;;;;;;5075985;28;20503;-83
2022/05/06 08:08:44;;;;;;;1.43;0.80;;;12.10;99.90;;;;;;5076426;28;20488;-82
2022/05/06 08:11:11;;;;;;;1.30;0.60;;;12.20;99.90;;;;;;5076017;28;20518;-82
2022/05/06 08:13:38;;;;;;;1.83;1.43;;;12.20;99.90;;;;;;5075768;28;20441;-82
2022/05/06 08:16:05;;;;;;;1.17;0.70;;;12.20;99.90;;;;;;5075781;28;20856;-83
2022/05/06 08:18:31;;;;;;;4.13;1.70;;;12.30;99.90;;;;;;5075694;28;20425;-83
2022/05/06 08:20:58;;;;;;;0.60;0.60;;;12.20;99.90;;;;;;5075731;28;20812;-83
2022/05/06 08:23:26;;;;;;;1.83;0.80;;;12.30;99.90;;;;;;5075251;28;20563;-83
2022/05/06 08:25:54;;;;;;;2.93;0.90;;;12.30;99.90;;;;;;5075555;28;20441;-83
2022/05/06 08:28:22;;;;;;;6.00;1.00;;;12.30;99.90;;;;;;5075488;28;20484;-83
2022/05/06 08:30:50;;;;;;;0.80;0.60;;;12.30;99.90;;;;;;5075450;28;20831;-83
2022/05/06 08:33:17;;;;;;;1.50;1.40;;;12.40;99.90;;;;;;5075423;28;20484;-84
2022/05/06 08:35:44;;;;;;;2.83;0.93;;;12.40;99.90;;;;;;5075370;28;20433;-83
2022/05/06 08:38:11;;;;;;;1.20;1.20;;;12.40;99.90;;;;;;5075309;28;20440;-83
2022/05/06 08:40:39;;;;;;;1.30;1.03;;;12.50;99.90;;;;;;5075283;28;20468;-83
2022/05/06 08:43:06;;;;;;;9.83;0.80;;;12.50;99.90;;;;;;5075109;28;20444;-83
2022/05/06 08:51:04;;;;;;;1.00;0.87;;;12.50;99.90;;;;;;5075143;28;20401;-83
2022/05/06 08:53:32;;;;;;;2.00;1.37;;;12.50;99.90;;;;;;5075088;28;20433;-83
2022/05/06 08:56:02;;;;;;;0.90;0.60;;;12.50;99.90;;;;;;5074911;28;20808;-83
2022/05/06 08:58:33;;;;;;;2.07;0.70;;;12.60;99.90;;;;;;5074831;28;20430;-83
2022/05/06 09:01:02;;;;;;;1.63;1.10;;;12.60;99.90;;;;;;5074532;28;20433;-83
2022/05/06 09:03:29;;;;;;;1.47;0.90;;;12.60;99.90;;;;;;5074865;28;20873;-83
2022/05/06 09:05:58;;;;;;;1.03;0.90;;;12.70;99.90;;;;;;5074841;28;20449;-83
2022/05/06 09:08:35;;;;;;;0.70;0.70;;;12.70;99.90;;;;;;5074601;28;20451;-83
2022/05/06 09:11:05;;;;;;;0.93;0.60;;;12.80;99.90;;;;;;5074384;28;20908;-83
2022/05/06 09:13:32;;;;;;;2.30;1.07;;;12.90;99.90;;;;;;5073212;28;20544;-83
2022/05/06 09:19:25;;;;;;;1.00;0.77;;;13.00;99.90;;;;;;5074543;28;20436;-83
2022/05/06 09:22:11;;;;;;;0.80;0.70;;;13.10;99.90;;;;;;5069741;28;20453;-83
2022/05/06 09:24:38;;;;;;;1.17;0.80;;;13.10;99.90;;;;;;5074910;28;20798;-83
2022/05/06 09:27:08;;;;;;;0.60;0.60;;;13.20;99.90;;;;;;5074353;28;20433;-83
2022/05/06 09:29:37;;;;;;;1.70;1.30;;;13.20;99.90;;;;;;5074274;28;20495;-83
2022/05/06 09:32:17;;;;;;;0.70;0.70;;;13.30;99.90;;;;;;5074098;28;20484;-83
2022/05/06 09:34:45;;;;;;;1.70;1.03;;;13.40;99.90;;;;;;5074217;28;20472;-84
2022/05/06 09:37:12;;;;;;;0.63;0.63;;;13.50;99.90;;;;;;5074679;28;20902;-83
2022/05/06 09:39:39;;;;;;;1.27;0.83;;;13.60;99.90;;;;;;5075155;28;20518;-83
2022/05/06 09:42:07;;;;;;;1.47;1.37;;;13.70;99.90;;;;;;5074000;28;20812;-83
2022/05/06 09:44:35;;;;;;;1.37;0.90;;;13.80;99.90;;;;;;5073627;28;20461;-83
2022/05/06 09:47:10;;;;;;;1.87;1.40;;;13.90;99.90;;;;;;5074170;28;20445;-84
2022/05/06 09:49:41;;;;;;;1.43;0.60;;;14.00;99.90;;;;;;5074204;28;20867;-83
2022/05/06 09:52:12;;;;;;;1.63;0.80;;;14.10;99.90;;;;;;5073759;28;20453;-83
2022/05/06 09:54:41;;;;;;;1.13;1.03;;;14.20;99.90;;;;;;5073703;28;20451;-83
2022/05/06 09:57:11;;;;;;;1.20;1.10;;;14.20;99.90;;;;;;5073362;28;20487;-83
2022/05/06 09:59:38;;;;;;;1.53;1.00;;;14.40;99.90;;;;;;5073304;28;20998;-83
2022/05/06 10:02:06;;;;;;;0.90;0.90;;;14.40;99.90;;;;;;5073637;28;20841;-83
2022/05/06 10:04:33;;;;;;;2.10;0.70;;;14.60;99.90;;;;;;5073532;28;20456;-84
2022/05/06 10:07:01;;;;;;;1.43;1.27;;;14.70;99.90;;;;;;5073542;28;20528;-83
2022/05/06 10:09:30;;;;;;;0.60;0.60;;;14.80;99.90;;;;;;5073480;28;20484;-83
2022/05/06 10:12:01;;;;;;;2.23;0.73;;;14.90;99.90;;;;;;5073603;28;20449;-83
2022/05/06 10:14:29;;;;;;;1.90;1.10;;;15.00;99.90;;;;;;5073699;28;20443;-83
2022/05/06 10:16:55;;;;;;;0.90;0.90;;;15.10;99.90;;;;;;5073674;28;20455;-83
2022/05/06 10:19:27;;;;;;;0.83;0.47;;;15.20;99.90;;;;;;5073486;28;20457;-83
2022/05/06 10:21:54;;;;;;;0.53;0.50;;;15.20;99.90;;;;;;5073382;28;20484;-83
2022/05/06 10:24:21;;;;;;;1.70;0.57;;;15.20;99.90;;;;;;5073281;28;20425;-83
2022/05/06 10:26:49;;;;;;;0.80;0.80;;;15.30;99.90;;;;;;5073443;28;20459;-81
2022/05/06 10:32:55;;;;;;;0.83;0.70;;;15.80;99.90;;;;;;5072851;28;20836;-82
2022/05/06 10:35:42;;;;;;;1.10;0.90;;;16.20;99.90;;;;;;5073228;28;20436;-82
2022/05/06 10:38:22;;;;;;;2.30;0.90;;;16.30;99.90;;;;;;5073212;28;20491;-82
2022/05/06 10:41:05;;;;;;;1.30;1.20;;;16.30;99.90;;;;;;5073245;28;20496;-83
2022/05/06 10:43:51;;;;;;;1.27;1.00;;;16.40;99.90;;;;;;5073806;28;20441;-83
2022/05/06 10:46:40;;;;;;;0.57;0.50;;;16.40;99.90;;;;;;5073146;28;20457;-83
2022/05/06 10:49:51;;;;;;;0.93;0.93;;;16.40;99.90;;;;;;5073041;28;20571;-82
2022/05/06 10:52:45;;;;;;;2.30;0.90;;;16.50;99.90;;;;;;5073339;28;20436;-83
2022/05/06 10:55:14;;;;;;;2.30;0.93;;;16.70;99.90;;;;;;5072882;28;20987;-83
2022/05/06 10:58:06;;;;;;;0.70;0.70;;;17.00;99.90;;;;;;5072744;28;20432;-82
2022/05/06 11:00:37;;;;;;;0.63;0.60;;;17.30;99.90;;;;;;5073060;28;20526;-83
2022/05/06 11:03:05;;;;;;;0.60;0.60;;;17.40;99.90;;;;;;5073118;28;20465;-82
2022/05/06 11:05:32;;;;;;;0.77;0.70;;;17.40;99.90;;;;;;5072980;28;20455;-83
2022/05/06 11:08:03;;;;;;;1.90;1.07;;;17.40;99.90;;;;;;5072985;28;20519;-83
2022/05/06 11:10:33;;;;;;;2.73;2.00;;;17.40;99.90;;;;;;5072661;28;20852;-81
2022/05/06 11:13:00;;;;;;;2.10;1.43;;;17.30;99.90;;;;;;5072619;28;20975;-82
2022/05/06 11:15:30;;;;;;;2.50;0.90;;;17.20;99.90;;;;;;5072880;28;20456;-82
2022/05/06 11:17:59;;;;;;;1.20;0.90;;;17.20;99.90;;;;;;5072812;28;20452;-82
2022/05/06 11:20:28;;;;;;;2.00;1.40;;;17.40;99.90;;;;;;5072805;28;20472;-82
2022/05/06 11:23:01;;;;;;;2.40;1.13;;;17.70;99.90;;;;;;5072886;28;20448;-82
2022/05/06 11:25:31;;;;;;;1.17;1.07;;;17.90;99.90;;;;;;5072855;28;20429;-83
2022/05/06 11:28:00;;;;;;;1.13;1.00;;;18.10;99.90;;;;;;5072742;28;20456;-82
2022/05/06 11:30:29;;;;;;;1.23;1.03;;;18.10;99.90;;;;;;5072666;28;20514;-82
2022/05/06 11:32:57;;;;;;;0.83;0.83;;;18.00;99.90;;;;;;5072415;28;20488;-82
2022/05/06 11:35:28;;;;;;;1.20;0.80;;;17.90;99.90;;;;;;5072951;28;20449;-83
2022/05/06 11:37:56;;;;;;;1.03;0.93;;;17.80;99.90;;;;;;5076511;28;20440;-82
2022/05/06 11:40:35;;;;;;;2.50;1.40;;;17.80;99.90;;;;;;5076030;28;20461;-83
2022/05/06 11:43:04;;;;;;;1.40;1.30;;;17.80;99.90;;;;;;5075942;28;20441;-82
2022/05/06 11:48:18;;;;;;;1.90;1.13;;;17.60;99.90;;;;;;5076614;28;20404;-82
2022/05/06 11:50:46;;;;;;;1.23;1.13;;;17.50;99.90;;;;;;5076021;28;20526;-82
2022/05/06 11:53:16;;;;;;;2.80;1.07;;;17.50;99.90;;;;;;5076153;28;20498;-83
2022/05/06 11:55:46;;;;;;;0.90;0.90;;;17.50;99.90;;;;;;5075783;28;20955;-83
2022/05/06 11:58:16;;;;;;;2.00;0.77;;;17.40;99.90;;;;;;5075716;28;20478;-83
2022/05/06 12:00:44;;;;;;;2.07;1.13;;;17.50;99.90;;;;;;5075938;28;20464;-83
2022/05/06 12:03:11;;;;;;;0.70;0.70;;;17.60;99.90;;;;;;5075951;28;20452;-82
2022/05/06 12:05:39;;;;;;;1.67;0.90;;;17.70;99.90;;;;;;5075880;28;20723;-82
2022/05/06 12:08:08;;;;;;;1.77;1.67;;;17.70;99.90;;;;;;5075840;28;20452;-81
2022/05/06 12:10:36;;;;;;;3.40;1.10;;;17.70;99.90;;;;;;5075966;28;20538;-82
2022/05/06 12:13:07;;;;;;;1.17;1.07;;;17.60;99.90;;;;;;5075907;28;20452;-82
2022/05/06 12:15:36;;;;;;;1.57;0.90;;;17.50;99.90;;;;;;5075381;28;20959;-82
2022/05/06 12:18:09;;;;;;;1.20;0.93;;;17.50;99.90;;;;;;5075428;28;20947;-84
2022/05/06 12:20:37;;;;;;;1.63;0.70;;;17.50;99.90;;;;;;5075486;28;20500;-82
2022/05/06 12:23:05;;;;;;;1.57;1.20;;;17.50;99.90;;;;;;5075569;28;20440;-82
2022/05/06 12:25:35;;;;;;;1.80;0.67;;;17.50;99.90;;;;;;5081201;28;20452;-82
2022/05/06 12:28:08;;;;;;;1.70;1.57;;;17.50;99.90;;;;;;5076035;28;20773;-83
2022/05/06 12:30:36;;;;;;;2.63;1.03;;;17.60;99.90;;;;;;5075360;28;20489;-82
2022/05/06 12:33:05;;;;;;;0.80;0.63;;;17.70;99.90;;;;;;5075089;28;20481;-82
2022/05/06 12:35:32;;;;;;;1.47;1.30;;;17.70;99.90;;;;;;5075328;28;20464;-82
2022/05/06 12:38:01;;;;;;;0.80;0.80;;;17.60;99.90;;;;;;5075316;28;20453;-82
2022/05/06 12:40:31;;;;;;;1.73;1.17;;;17.60;99.90;;;;;;5075124;28;20472;-84
2022/05/06 12:43:10;;;;;;;2.00;1.10;;;17.70;99.90;;;;;;5075115;28;20445;-83
2022/05/06 12:45:38;;;;;;;0.90;0.90;;;17.80;99.90;;;;;;5074914;28;20939;-83
2022/05/06 12:50:49;;;;;;;0.87;0.60;;;17.90;99.90;;;;;;5074937;28;20499;-83
2022/05/06 12:53:16;;;;;;;3.70;1.17;;;17.90;99.90;;;;;;5075012;28;20470;-83
2022/05/06 12:55:43;;;;;;;1.67;1.00;;;17.90;99.90;;;;;;5074752;28;20459;-82
2022/05/06 12:58:12;;;;;;;1.00;0.90;;;17.90;99.90;;;;;;5074776;28;21062;-83
2022/05/06 13:00:39;;;;;;;0.80;0.80;;;17.90;99.90;;;;;;5074476;28;20976;-83
2022/05/06 13:03:06;;;;;;;1.30;0.77;;;18.00;99.90;;;;;;5074904;28;20498;-83
2022/05/06 13:05:34;;;;;;;0.80;0.80;;;18.00;99.90;;;;;;5074508;28;20963;-79
2022/05/06 13:08:06;;;;;;;1.47;0.77;;;18.00;99.90;;;;;;5074425;28;20951;-82
2022/05/06 13:10:33;;;;;;;8.53;0.83;;;17.90;99.90;;;;;;5074544;28;20488;-82
2022/05/06 13:13:00;;;;;;;1.17;0.87;;;17.70;99.90;;;;;;5074628;28;20441;-83
2022/05/06 13:15:28;;;;;;;1.80;1.43;;;17.70;99.90;;;;;;5074527;28;20497;-82
2022/05/06 13:17:55;;;;;;;2.73;1.10;;;17.60;99.90;;;;;;5074570;28;20437;-82
2022/05/06 13:20:22;;;;;;;0.80;0.80;;;17.50;99.90;;;;;;5074523;28;20465;-82
2022/05/06 13:22:48;;;;;;;1.53;1.30;;;17.50;99.90;;;;;;5074467;28;20839;-84
2022/05/06 13:25:15;;;;;;;2.03;1.47;;;17.50;99.90;;;;;;5074457;28;20429;-82
2022/05/06 13:27:42;;;;;;;1.93;1.03;;;17.50;99.90;;;;;;5074991;28;20468;-83
2022/05/06 13:30:10;;;;;;;1.50;0.80;;;17.40;99.90;;;;;;5074150;28;20492;-83
2022/05/06 13:32:38;;;;;;;1.00;0.90;;;17.40;99.90;;;;;;5073887;28;20469;-82
2022/05/06 13:35:05;;;;;;;0.60;0.60;;;17.40;99.90;;;;;;5074291;28;20441;-83